Time;durP1;ratioP1;P1;durP2;ratioP2;P2;SDS_P1;SDS_P2;PMS_P1;PMS_P2;Temp;Humidity;BMP_temperature;BMP_pressure;BME280_temperature;BME280_humidity;BME280_pressure;Samples;Min_cycle;Max_cycle;Signal;HPM_P1;HPM_P2
2022/09/20 00:00:21;;;;;;;;;;;12.30;99.90;;;;;;5010546;28;19925;-80
2022/09/20 00:02:47;;;;;;;;;;;12.20;99.90;;;;;;5008669;28;19980;-80
2022/09/20 00:05:12;;;;;;;;;;;12.20;99.90;;;;;;5010302;28;20020;-80
2022/09/20 00:07:38;;;;;;;;;;;12.20;99.90;;;;;;5009968;28;19928;-80
2022/09/20 00:10:04;;;;;;;;;;;12.20;99.90;;;;;;5010027;28;20403;-80
2022/09/20 00:12:30;;;;;;;;;;;12.20;99.90;;;;;;5009755;28;19933;-81
2022/09/20 00:14:55;;;;;;;;;;;12.20;99.90;;;;;;5025805;28;20277;-80
2022/09/20 00:17:21;;;;;;;;;;;12.20;99.90;;;;;;5025227;28;19933;-80
2022/09/20 00:19:46;;;;;;;;;;;12.20;99.90;;;;;;5009913;28;20302;-80
2022/09/20 00:22:12;;;;;;;;;;;12.20;99.90;;;;;;5009962;28;19925;-80
2022/09/20 00:24:37;;;;;;;;;;;12.20;99.90;;;;;;5009516;28;19926;-80
2022/09/20 00:27:03;;;;;;;;;;;12.30;99.90;;;;;;5008655;28;19932;-80
2022/09/20 00:29:28;;;;;;;;;;;12.30;99.90;;;;;;5007933;28;19975;-80
2022/09/20 00:31:54;;;;;;;;;;;12.30;99.90;;;;;;5008413;28;19956;-80
2022/09/20 00:37:03;;;;;;;;;;;12.30;99.90;;;;;;5009733;28;19996;-80
2022/09/20 00:39:29;;;;;;;;;;;12.30;99.90;;;;;;5009752;28;19921;-80
2022/09/20 00:41:54;;;;;;;;;;;12.30;99.90;;;;;;5009690;28;20020;-80
2022/09/20 00:44:38;;;;;;;;;;;12.30;99.90;;;;;;5008899;28;19926;-80
2022/09/20 00:47:04;;;;;;;;;;;12.30;99.90;;;;;;5009547;28;19925;-80
2022/09/20 00:49:30;;;;;;;;;;;12.30;99.90;;;;;;5009186;28;19930;-80
2022/09/20 00:51:58;;;;;;;;;;;12.20;99.90;;;;;;5009717;28;19960;-80
2022/09/20 00:54:24;;;;;;;;;;;12.20;99.90;;;;;;5009340;28;19926;-80
2022/09/20 00:56:50;;;;;;;;;;;12.20;99.90;;;;;;5008491;28;19984;-80
2022/09/20 00:59:17;;;;;;;;;;;12.20;99.90;;;;;;5008538;28;20016;-80
2022/09/20 01:01:45;;;;;;;;;;;12.20;99.90;;;;;;5008596;28;19926;-80
2022/09/20 01:04:13;;;;;;;;;;;12.20;99.90;;;;;;5009111;28;19971;-80
2022/09/20 01:06:39;;;;;;;;;;;12.20;99.90;;;;;;5084634;23;20850;-79
2022/09/20 01:09:06;;;;;;;;;;;12.20;99.90;;;;;;5008587;28;19930;-80
2022/09/20 01:11:32;;;;;;;;;;;12.20;99.90;;;;;;5008472;28;19989;-80
2022/09/20 01:13:58;;;;;;;;;;;12.20;99.90;;;;;;5008149;28;19932;-80
2022/09/20 01:16:24;;;;;;;;;;;12.20;99.90;;;;;;5008569;28;19929;-80
2022/09/20 01:18:50;;;;;;;;;;;12.20;99.90;;;;;;5008268;28;19929;-79
2022/09/20 01:21:17;;;;;;;;;;;12.20;99.90;;;;;;5007205;28;19936;-80
2022/09/20 01:23:55;;;;;;;;;;;12.20;99.90;;;;;;5008348;28;19960;-80
2022/09/20 01:26:23;;;;;;;;;;;12.20;99.90;;;;;;5008590;28;19926;-79
2022/09/20 01:28:51;;;;;;;;;;;12.20;99.90;;;;;;5007645;28;20387;-79
2022/09/20 01:31:27;;;;;;;;;;;12.20;99.90;;;;;;5008817;28;19929;-80
2022/09/20 01:33:58;;;;;;;;;;;12.20;99.90;;;;;;5023962;28;19976;-80
2022/09/20 01:36:25;;;;;;;;;;;12.20;99.90;;;;;;5008686;28;19925;-80
2022/09/20 01:39:09;;;;;;;;;;;12.20;99.90;;;;;;5008309;28;19921;-80
2022/09/20 01:41:43;;;;;;;;;;;12.20;99.90;;;;;;5008603;28;19936;-80
2022/09/20 01:44:27;;;;;;;;;;;12.20;99.90;;;;;;5007812;28;19921;-79
2022/09/20 01:47:01;;;;;;;;;;;12.20;99.90;;;;;;5008360;28;20016;-80
2022/09/20 01:49:35;;;;;;;;;;;12.20;99.90;;;;;;5008967;28;19980;-79
2022/09/20 01:52:20;;;;;;;;;;;12.20;99.90;;;;;;5007192;28;20442;-80
2022/09/20 01:54:45;;;;;;;;;;;12.20;99.90;;;;;;5008530;28;19925;-79
2022/09/20 01:57:20;;;;;;;;;;;12.20;99.90;;;;;;5008524;28;20007;-79
2022/09/20 02:00:02;;;;;;;;;;;12.20;99.90;;;;;;5007260;28;19987;-80
2022/09/20 02:02:30;;;;;;;;;;;12.20;99.90;;;;;;5007601;28;20383;-80
2022/09/20 02:05:10;;;;;;;;;;;12.20;99.90;;;;;;5007581;28;19926;-80
2022/09/20 02:07:48;;;;;;;;;;;12.20;99.90;;;;;;5006498;28;19925;-80
2022/09/20 02:10:13;;;;;;;;;;;12.20;99.90;;;;;;5008289;28;19971;-80
2022/09/20 02:12:59;;;;;;;;;;;12.10;99.90;;;;;;5007292;28;19925;-80
2022/09/20 02:15:35;;;;;;;;;;;12.10;99.90;;;;;;5007015;28;19951;-80
2022/09/20 02:18:09;;;;;;;;;;;12.10;99.90;;;;;;4991084;28;20679;-80
2022/09/20 02:20:44;;;;;;;;;;;12.10;99.90;;;;;;5008034;28;19932;-80
2022/09/20 02:23:15;;;;;;;;;;;12.10;99.90;;;;;;5008420;28;19926;-80
2022/09/20 02:25:47;;;;;;;;;;;12.10;99.90;;;;;;5007309;28;20000;-80
2022/09/20 02:28:12;;;;;;;;;;;12.10;99.90;;;;;;5007370;28;20331;-80
2022/09/20 02:30:48;;;;;;;;;;;12.10;99.90;;;;;;5007958;28;19926;-80
2022/09/20 02:33:20;;;;;;;;;;;12.10;99.90;;;;;;5008125;28;19977;-80
2022/09/20 02:35:45;;;;;;;;;;;12.00;99.90;;;;;;5007603;28;19932;-80
2022/09/20 02:38:17;;;;;;;;;;;12.00;99.90;;;;;;5007607;28;19925;-81
2022/09/20 02:41:15;;;;;;;;;;;12.00;99.90;;;;;;5007891;28;20343;-80
2022/09/20 02:43:47;;;;;;;;;;;12.00;99.90;;;;;;5005545;28;19925;-80
2022/09/20 02:46:17;;;;;;;;;;;11.90;99.90;;;;;;5007924;28;19926;-80
2022/09/20 02:48:46;;;;;;;;;;;11.90;99.90;;;;;;5006505;28;19979;-81
2022/09/20 02:51:19;;;;;;;;;;;11.90;99.90;;;;;;5007778;28;19925;-80
2022/09/20 02:53:49;;;;;;;;;;;11.80;99.90;;;;;;5006425;28;19932;-80
2022/09/20 02:56:28;;;;;;;;;;;11.90;99.90;;;;;;5006761;28;20299;-81
2022/09/20 02:59:00;;;;;;;;;;;11.80;99.90;;;;;;5005672;28;20395;-80
2022/09/20 03:01:44;;;;;;;;;;;11.80;99.90;;;;;;5008278;28;19984;-80
2022/09/20 03:04:28;;;;;;;;;;;11.80;99.90;;;;;;5008063;28;19926;-80
2022/09/20 03:07:02;;;;;;;;;;;11.80;99.90;;;;;;5007160;28;20382;-80
2022/09/20 03:09:43;;;;;;;;;;;11.80;99.90;;;;;;5006795;28;20403;-80
2022/09/20 03:12:15;;;;;;;;;;;11.80;99.90;;;;;;5006972;28;19933;-80
2022/09/20 03:14:54;;;;;;;;;;;11.80;99.90;;;;;;5007567;28;19928;-80
2022/09/20 03:17:19;;;;;;;;;;;11.80;99.90;;;;;;5007634;28;20448;-80
2022/09/20 03:19:48;;;;;;;;;;;11.70;99.90;;;;;;5009952;28;19996;-80
2022/09/20 03:22:38;;;;;;;;;;;11.70;99.90;;;;;;5011546;28;19926;-80
2022/09/20 03:25:06;;;;;;;;;;;11.70;99.90;;;;;;4998477;28;19921;-80
2022/09/20 03:27:41;;;;;;;;;;;11.70;99.90;;;;;;5009757;28;20391;-80
2022/09/20 03:30:16;;;;;;;;;;;11.70;99.90;;;;;;5010847;28;19926;-80
2022/09/20 03:32:50;;;;;;;;;;;11.70;99.90;;;;;;5011117;28;19932;-80
2022/09/20 03:35:21;;;;;;;;;;;11.70;99.90;;;;;;5011057;28;19928;-80
2022/09/20 03:37:46;;;;;;;;;;;11.60;99.90;;;;;;4991218;28;20005;-80
2022/09/20 03:40:27;;;;;;;;;;;11.70;99.90;;;;;;4990080;28;20423;-80
2022/09/20 03:42:55;;;;;;;;;;;11.60;99.90;;;;;;4989813;28;19926;-80
2022/09/20 03:45:39;;;;;;;;;;;11.60;99.90;;;;;;4994953;28;20048;-80
2022/09/20 03:48:40;;;;;;;;;;;11.60;99.90;;;;;;5025723;28;20417;-80
2022/09/20 03:51:06;;;;;;;;;;;11.70;99.90;;;;;;4991762;28;19925;-80
2022/09/20 03:53:40;;;;;;;;;;;11.60;99.90;;;;;;5009734;28;20399;-81
2022/09/20 03:56:09;;;;;;;;;;;11.60;99.90;;;;;;5010755;28;19995;-80
2022/09/20 03:58:44;;;;;;;;;;;11.60;99.90;;;;;;5009095;28;20610;-80
2022/09/20 04:01:28;;;;;;;;;;;11.60;99.90;;;;;;5010528;28;19964;-80
2022/09/20 04:04:20;;;;;;;;;;;11.60;99.90;;;;;;5010180;28;19958;-80
2022/09/20 04:06:52;;;;;;;;;;;11.50;99.90;;;;;;5008320;28;20016;-80
2022/09/20 04:09:20;;;;;;;;;;;11.60;99.90;;;;;;5010413;28;19931;-80
2022/09/20 04:11:52;;;;;;;;;;;11.50;99.90;;;;;;5008918;28;19932;-80
2022/09/20 04:14:25;;;;;;;;;;;11.60;99.90;;;;;;5008981;28;19925;-80
2022/09/20 04:17:04;;;;;;;;;;;11.60;99.90;;;;;;5008408;28;19929;-80
2022/09/20 04:19:34;;;;;;;;;;;11.60;99.90;;;;;;5008788;28;19964;-81
2022/09/20 04:22:00;;;;;;;;;;;11.60;99.90;;;;;;5010231;28;19925;-80
2022/09/20 04:24:32;;;;;;;;;;;11.60;99.90;;;;;;5003529;28;19926;-80
2022/09/20 04:26:59;;;;;;;;;;;11.60;99.90;;;;;;5008676;28;19926;-80
2022/09/20 04:29:31;;;;;;;;;;;11.60;99.90;;;;;;5009915;28;19925;-80
2022/09/20 04:32:09;;;;;;;;;;;11.60;99.90;;;;;;5009623;28;20019;-80
2022/09/20 04:37:23;;;;;;;;;;;11.60;99.90;;;;;;5009548;28;19926;-80
2022/09/20 04:39:54;;;;;;;;;;;11.70;99.90;;;;;;5008361;28;19933;-80
2022/09/20 04:42:29;;;;;;;;;;;11.70;99.90;;;;;;5008639;28;19934;-80
2022/09/20 04:45:13;;;;;;;;;;;11.70;99.90;;;;;;5009668;28;19964;-80
2022/09/20 04:47:51;;;;;;;;;;;11.70;99.90;;;;;;5009489;28;19931;-80
2022/09/20 04:50:36;;;;;;;;;;;11.70;99.90;;;;;;5008182;28;19929;-80
2022/09/20 04:53:04;;;;;;;;;;;11.70;99.90;;;;;;5005710;28;19929;-81
2022/09/20 04:55:49;;;;;;;;;;;11.70;99.90;;;;;;5009152;28;20040;-81
2022/09/20 04:58:15;;;;;;;;;;;11.70;99.90;;;;;;5008308;28;19932;-82
2022/09/20 05:01:00;;;;;;;;;;;11.70;99.90;;;;;;4994593;28;20020;-81
2022/09/20 05:03:40;;;;;;;;;;;11.70;99.90;;;;;;4990490;28;19933;-81
2022/09/20 05:06:06;;;;;;;;;;;11.70;99.90;;;;;;5009150;28;20383;-81
2022/09/20 05:08:34;;;;;;;;;;;11.70;99.90;;;;;;5007324;28;19941;-81
2022/09/20 05:11:20;;;;;;;;;;;11.70;99.90;;;;;;5008457;28;22399;-81
2022/09/20 05:14:04;;;;;;;;;;;11.70;99.90;;;;;;5006366;28;20016;-81
2022/09/20 05:16:42;;;;;;;;;;;11.60;99.90;;;;;;5008171;28;19929;-82
2022/09/20 05:19:14;;;;;;;;;;;11.70;99.90;;;;;;5007610;28;20502;-80
2022/09/20 05:22:18;;;;;;;;;;;11.70;99.90;;;;;;5008713;28;19930;-80
2022/09/20 05:25:01;;;;;;;;;;;11.70;99.90;;;;;;4989289;28;19963;-80
2022/09/20 05:27:50;;;;;;;;;;;11.60;99.90;;;;;;5003978;28;19963;-80
2022/09/20 05:30:16;;;;;;;;;;;11.60;99.90;;;;;;5003627;28;20052;-80
2022/09/20 05:32:50;;;;;;;;;;;11.70;99.90;;;;;;5008365;28;19926;-80
2022/09/20 05:35:28;;;;;;;;;;;11.60;99.90;;;;;;5008737;28;20387;-78
2022/09/20 05:38:02;;;;;;;;;;;11.60;99.90;;;;;;5007205;28;19929;-77
2022/09/20 05:40:47;;;;;;;;;;;11.60;99.90;;;;;;5023975;28;19925;-78
2022/09/20 05:43:19;;;;;;;;;;;11.60;99.90;;;;;;5008304;28;19933;-77
2022/09/20 05:45:52;;;;;;;;;;;11.60;99.90;;;;;;5000720;28;20358;-78
2022/09/20 05:48:23;;;;;;;;;;;11.60;99.90;;;;;;5010256;28;20379;-79
2022/09/20 05:50:59;;;;;;;;;;;11.60;99.90;;;;;;5001584;28;19933;-78
2022/09/20 05:53:34;;;;;;;;;;;11.60;99.90;;;;;;4996006;28;19936;-79
2022/09/20 05:56:03;;;;;;;;;;;11.60;99.90;;;;;;4989482;28;20036;-80
2022/09/20 05:58:37;;;;;;;;;;;11.60;99.90;;;;;;4998348;28;20418;-80
2022/09/20 06:01:06;;;;;;;;;;;11.60;99.90;;;;;;5008334;28;20016;-79
2022/09/20 06:03:31;;;;;;;;;;;11.60;99.90;;;;;;4997877;28;20045;-80
2022/09/20 06:06:09;;;;;;;;;;;11.60;99.90;;;;;;5005160;28;19933;-80
2022/09/20 06:08:55;;;;;;;;;;;11.60;99.90;;;;;;5005244;28;20020;-79
2022/09/20 06:11:20;;;;;;;;;;;11.60;99.90;;;;;;4986855;28;20020;-79
2022/09/20 06:13:59;;;;;;;;;;;11.60;99.90;;;;;;4987573;28;19977;-79
2022/09/20 06:16:38;;;;;;;;;;;11.60;99.90;;;;;;4986640;28;19933;-79
2022/09/20 06:19:18;;;;;;;;;;;11.70;99.90;;;;;;4988711;28;20450;-79
2022/09/20 06:21:50;;;;;;;;;;;11.60;99.90;;;;;;4999498;28;20006;-79
2022/09/20 06:24:34;;;;;;;;;;;11.70;99.90;;;;;;5003496;28;19926;-79
2022/09/20 06:27:03;;;;;;;;;;;11.70;99.90;;;;;;4990033;28;19928;-81
2022/09/20 06:29:29;;;;;;;;;;;11.70;99.90;;;;;;5000889;28;20024;-80
2022/09/20 06:31:55;;;;;;;;;;;11.80;99.90;;;;;;4998349;28;19925;-77
2022/09/20 06:34:21;;;;;;;;;;;11.80;99.90;;;;;;4996413;28;19932;-79
2022/09/20 06:42:59;;;;;;;;;;;11.90;99.90;;;;;;5005096;28;20389;-79
2022/09/20 06:45:24;;;;;;;;;;;11.90;99.90;;;;;;5005809;28;19976;-79
2022/09/20 06:47:50;;;;;;;;;;;11.90;99.90;;;;;;5006379;28;19926;-79
2022/09/20 06:50:16;;;;;;;;;;;11.90;99.90;;;;;;5006483;28;19968;-79
2022/09/20 06:52:43;;;;;;;;;;;12.00;99.90;;;;;;4989573;28;20414;-79
2022/09/20 06:55:12;;;;;;;;;;;11.90;99.90;;;;;;4999797;28;19921;-79
2022/09/20 06:57:38;;;;;;;;;;;12.00;99.90;;;;;;5009284;28;19933;-78
2022/09/20 07:00:05;;;;;;;;;;;12.00;99.90;;;;;;5005663;28;20287;-77
2022/09/20 07:02:30;;;;;;;;;;;12.00;99.90;;;;;;5011160;28;20387;-79
2022/09/20 07:04:58;;;;;;;;;;;12.10;99.90;;;;;;5018547;28;19952;-78
2022/09/20 07:07:24;;;;;;;;;;;12.00;99.90;;;;;;5003661;28;20395;-78
2022/09/20 07:09:50;;;;;;;;;;;12.10;99.90;;;;;;5003250;28;19929;-78
2022/09/20 07:12:16;;;;;;;;;;;12.10;99.90;;;;;;5014883;28;20047;-79
2022/09/20 07:14:41;;;;;;;;;;;12.10;99.90;;;;;;5011133;28;19922;-80
2022/09/20 07:17:07;;;;;;;;;;;12.00;99.90;;;;;;5026128;28;19933;-79
2022/09/20 07:19:32;;;;;;;;;;;12.00;99.90;;;;;;5010508;28;19921;-79
2022/09/20 07:21:58;;;;;;;;;;;12.00;99.90;;;;;;5010737;28;19991;-79
2022/09/20 07:24:23;;;;;;;;;;;12.00;99.90;;;;;;5002694;28;19930;-79
2022/09/20 07:26:55;;;;;;;;;;;12.10;99.90;;;;;;4989688;28;19925;-79
2022/09/20 07:29:21;;;;;;;;;;;12.10;99.90;;;;;;4990924;28;19926;-79
2022/09/20 07:31:47;;;;;;;;;;;12.20;99.90;;;;;;4990326;28;19926;-79
2022/09/20 07:34:13;;;;;;;;;;;12.20;99.90;;;;;;4989647;28;19925;-79
2022/09/20 07:36:38;;;;;;;;;;;12.20;99.90;;;;;;4989769;28;19926;-79
2022/09/20 07:39:05;;;;;;;;;;;12.30;99.90;;;;;;4990764;28;19936;-79
2022/09/20 07:41:31;;;;;;;;;;;12.30;99.90;;;;;;4989558;28;19926;-79
2022/09/20 07:44:19;;;;;;;;;;;12.40;99.90;;;;;;4991118;28;19940;-79
2022/09/20 07:46:46;;;;;;;;;;;12.40;99.90;;;;;;4990250;28;19965;-79
2022/09/20 07:49:12;;;;;;;;;;;12.50;99.90;;;;;;4990505;28;19926;-79
2022/09/20 07:51:37;;;;;;;;;;;12.50;99.90;;;;;;4990298;28;20372;-79
2022/09/20 07:54:03;;;;;;;;;;;12.60;99.90;;;;;;4990697;28;20016;-79
2022/09/20 07:56:28;;;;;;;;;;;12.60;99.90;;;;;;4989733;28;20048;-79
2022/09/20 07:58:54;;;;;;;;;;;12.70;99.90;;;;;;5005477;28;19929;-79
2022/09/20 08:01:20;;;;;;;;;;;12.80;99.90;;;;;;4988745;28;19933;-79
2022/09/20 08:03:46;;;;;;;;;;;12.80;99.90;;;;;;4990112;28;19925;-79
2022/09/20 08:06:15;;;;;;;;;;;12.90;99.90;;;;;;4989878;28;20342;-79
2022/09/20 08:08:41;;;;;;;;;;;12.90;99.90;;;;;;4989809;28;19925;-79
2022/09/20 08:11:07;;;;;;;;;;;13.00;99.90;;;;;;4990048;28;19925;-79
2022/09/20 08:13:37;;;;;;;;;;;13.10;99.90;;;;;;4988918;28;19952;-79
2022/09/20 08:16:03;;;;;;;;;;;13.20;99.90;;;;;;4990335;28;19926;-79
2022/09/20 08:18:28;;;;;;;;;;;13.20;99.90;;;;;;4990338;28;19929;-79
2022/09/20 08:20:54;;;;;;;;;;;13.20;99.90;;;;;;4988823;28;19926;-79
2022/09/20 08:23:19;;;;;;;;;;;13.30;99.90;;;;;;4989793;28;20376;-79
2022/09/20 08:25:46;;;;;;;;;;;13.40;99.90;;;;;;5007132;28;20016;-79
2022/09/20 08:28:11;;;;;;;;;;;13.40;99.90;;;;;;5008500;28;19933;-79
2022/09/20 08:30:37;;;;;;;;;;;13.40;99.90;;;;;;5008931;28;20283;-79
2022/09/20 08:33:02;;;;;;;;;;;13.50;99.90;;;;;;5009205;28;19926;-79
2022/09/20 08:35:28;;;;;;;;;;;13.50;99.90;;;;;;5009315;28;20041;-79
2022/09/20 08:37:54;;;;;;;;;;;13.50;99.90;;;;;;5009059;28;19929;-78
2022/09/20 08:40:22;;;;;;;;;;;13.50;99.90;;;;;;5009099;28;19933;-79
2022/09/20 08:42:48;;;;;;;;;;;13.40;99.90;;;;;;5006691;28;19925;-79
2022/09/20 08:45:15;;;;;;;;;;;13.50;99.90;;;;;;5009118;28;20311;-79
2022/09/20 08:47:45;;;;;;;;;;;13.50;99.90;;;;;;5008619;28;19969;-79
2022/09/20 08:50:14;;;;;;;;;;;13.50;99.90;;;;;;5008769;28;19925;-79
2022/09/20 08:52:43;;;;;;;;;;;13.50;99.90;;;;;;5008477;28;19925;-79
2022/09/20 08:55:30;;;;;;;;;;;13.50;99.90;;;;;;5008723;28;19929;-79
2022/09/20 08:57:56;;;;;;;;;;;13.50;99.90;;;;;;5008743;28;19926;-79
2022/09/20 09:00:24;;;;;;;;;;;13.50;99.90;;;;;;5008919;28;19929;-79
2022/09/20 09:02:54;;;;;;;;;;;13.60;99.90;;;;;;5007098;28;19983;-79
2022/09/20 09:05:31;;;;;;;;;;;13.60;99.90;;;;;;5007966;28;19929;-80
2022/09/20 09:07:59;;;;;;;;;;;13.60;99.90;;;;;;5004477;28;20295;-80
2022/09/20 09:10:33;;;;;;;;;;;13.60;99.90;;;;;;4990114;28;19926;-77
2022/09/20 09:12:59;;;;;;;;;;;13.60;99.90;;;;;;4988622;28;19926;-79
2022/09/20 09:15:30;;;;;;;;;;;13.70;99.90;;;;;;4988393;28;20336;-79
2022/09/20 09:17:56;;;;;;;;;;;13.70;99.90;;;;;;5008884;28;19964;-79
2022/09/20 09:20:23;;;;;;;;;;;13.80;99.90;;;;;;5008735;28;19941;-79
2022/09/20 09:22:59;;;;;;;;;;;13.90;99.90;;;;;;5008828;28;19933;-79
2022/09/20 09:25:31;;;;;;;;;;;13.90;99.90;;;;;;4994362;28;19964;-79
2022/09/20 09:27:56;;;;;;;;;;;13.90;99.90;;;;;;4987649;28;20012;-79
2022/09/20 09:30:25;;;;;;;;;;;13.90;99.90;;;;;;4988987;28;20071;-79
2022/09/20 09:32:51;;;;;;;;;;;13.90;99.90;;;;;;4999154;28;19948;-79
2022/09/20 09:35:22;;;;;;;;;;;13.90;99.90;;;;;;5008712;28;19969;-77
2022/09/20 09:37:52;;;;;;;;;;;13.90;99.90;;;;;;5007268;28;19929;-79
2022/09/20 09:40:18;;;;;;;;;;;14.00;99.90;;;;;;5008603;28;19979;-79
2022/09/20 09:43:01;;;;;;;;;;;14.00;99.90;;;;;;4998120;28;20013;-79
2022/09/20 09:45:27;;;;;;;;;;;14.10;99.90;;;;;;5018064;28;19930;-80
2022/09/20 09:47:56;;;;;;;;;;;14.10;99.90;;;;;;5004050;28;19941;-79
2022/09/20 09:50:23;;;;;;;;;;;14.20;99.90;;;;;;5007619;28;19926;-78
2022/09/20 09:53:12;;;;;;;;;;;14.20;99.90;;;;;;5008101;28;19980;-79
2022/09/20 09:55:55;;;;;;;;;;;14.20;99.90;;;;;;5022560;28;20404;-79
2022/09/20 09:58:23;;;;;;;;;;;14.20;99.90;;;;;;5007078;28;20244;-79
2022/09/20 10:00:50;;;;;;;;;;;14.20;99.90;;;;;;5007747;28;19952;-79
2022/09/20 10:03:23;;;;;;;;;;;14.20;99.90;;;;;;4999071;28;20135;-78
2022/09/20 10:05:48;;;;;;;;;;;14.20;99.90;;;;;;5004717;28;20024;-78
2022/09/20 10:08:26;;;;;;;;;;;14.20;99.90;;;;;;4988440;28;20017;-79
2022/09/20 10:11:05;;;;;;;;;;;14.20;99.90;;;;;;4987059;28;19926;-80
2022/09/20 10:13:31;;;;;;;;;;;14.10;99.90;;;;;;4989510;28;20399;-79
2022/09/20 10:15:59;;;;;;;;;;;14.10;99.90;;;;;;4990028;28;20065;-79
2022/09/20 10:18:28;;;;;;;;;;;14.10;99.90;;;;;;4989159;28;19926;-79
2022/09/20 10:21:12;;;;;;;;;;;14.10;99.90;;;;;;4987625;28;19941;-79
2022/09/20 10:23:43;;;;;;;;;;;14.10;99.90;;;;;;5010094;28;19934;-80
2022/09/20 10:26:21;;;;;;;;;;;14.10;99.90;;;;;;4990416;28;20028;-80
2022/09/20 10:28:55;;;;;;;;;;;14.10;99.90;;;;;;4994193;28;19957;-80
2022/09/20 10:31:36;;;;;;;;;;;14.20;99.90;;;;;;4993225;28;20033;-79
2022/09/20 10:34:02;;;;;;;;;;;14.10;99.90;;;;;;4989411;28;19933;-79
2022/09/20 10:36:39;;;;;;;;;;;14.20;99.90;;;;;;4993340;28;19933;-80
2022/09/20 10:39:11;;;;;;;;;;;14.20;99.90;;;;;;4992676;28;19932;-79
2022/09/20 10:44:42;;;;;;;;;;;14.20;99.90;;;;;;5006812;28;19956;-79
2022/09/20 10:47:18;;;;;;;;;;;14.20;99.90;;;;;;5011799;28;19926;-79
2022/09/20 10:49:45;;;;;;;;;;;14.30;99.90;;;;;;5011223;28;19929;-79
2022/09/20 10:52:25;;;;;;;;;;;14.40;99.90;;;;;;5011877;28;20020;-79
2022/09/20 10:55:04;;;;;;;;;;;14.40;99.90;;;;;;5011543;28;20021;-76
2022/09/20 10:57:48;;;;;;;;;;;14.50;99.90;;;;;;5008265;28;20052;-79
2022/09/20 11:00:43;;;;;;;;;;;14.50;99.90;;;;;;5006965;28;20025;-78
2022/09/20 11:03:11;;;;;;;;;;;14.60;99.90;;;;;;5008857;28;20068;-78
2022/09/20 11:05:55;;;;;;;;;;;14.60;99.90;;;;;;4991705;28;19926;-78
2022/09/20 11:08:25;;;;;;;;;;;14.60;99.90;;;;;;4991368;28;19925;-78
2022/09/20 11:10:52;;;;;;;;;;;14.60;99.90;;;;;;4990616;28;19926;-78
2022/09/20 11:13:19;;;;;;;;;;;14.60;99.90;;;;;;4991673;28;19977;-78
2022/09/20 11:16:04;;;;;;;;;;;14.70;99.90;;;;;;4991694;28;19934;-78
2022/09/20 11:18:41;;;;;;;;;;;14.70;99.90;;;;;;4991274;28;19933;-79
2022/09/20 11:21:10;;;;;;;;;;;14.60;99.90;;;;;;4990475;28;19981;-77
2022/09/20 11:23:45;;;;;;;;;;;14.60;99.90;;;;;;4991415;28;19926;-79
2022/09/20 11:26:13;;;;;;;;;;;14.60;99.90;;;;;;4990575;28;20407;-77
2022/09/20 11:28:41;;;;;;;;;;;14.60;99.90;;;;;;4990994;28;19933;-78
2022/09/20 11:31:12;;;;;;;;;;;14.60;99.90;;;;;;5010490;28;19960;-78
2022/09/20 11:33:48;;;;;;;;;;;14.60;99.90;;;;;;4994466;28;19929;-79
2022/09/20 11:36:16;;;;;;;;;;;14.60;99.90;;;;;;4991469;28;19925;-79
2022/09/20 11:39:03;;;;;;;;;;;14.60;99.90;;;;;;4998169;28;20331;-79
2022/09/20 11:41:30;;;;;;;;;;;14.60;99.90;;;;;;5009540;28;19933;-77
2022/09/20 11:43:59;;;;;;;;;;;14.50;99.90;;;;;;5009382;28;19934;-78
2022/09/20 11:46:30;;;;;;;;;;;14.60;99.90;;;;;;5011272;28;19925;-78
2022/09/20 11:48:59;;;;;;;;;;;14.60;99.90;;;;;;4999959;28;19969;-77
2022/09/20 11:51:30;;;;;;;;;;;14.60;99.90;;;;;;4991694;28;20344;-77
2022/09/20 11:54:14;;;;;;;;;;;14.60;99.90;;;;;;4992416;28;19926;-78
2022/09/20 11:56:48;;;;;;;;;;;14.60;99.90;;;;;;4989934;28;19973;-77
2022/09/20 11:59:27;;;;;;;;;;;14.60;99.90;;;;;;5001219;28;19965;-75
2022/09/20 12:01:54;;;;;;;;;;;14.70;99.90;;;;;;5010271;28;19926;-76
2022/09/20 12:04:22;;;;;;;;;;;14.70;99.90;;;;;;5007671;28;19979;-78
2022/09/20 12:06:57;;;;;;;;;;;14.70;99.90;;;;;;5009418;28;19922;-78
2022/09/20 12:09:22;;;;;;;;;;;14.70;99.90;;;;;;5009556;28;19925;-78
2022/09/20 12:11:48;;;;;;;;;;;14.80;99.90;;;;;;5008234;28;19925;-78
2022/09/20 12:14:27;;;;;;;;;;;14.80;99.90;;;;;;5007725;28;19930;-79
2022/09/20 12:16:53;;;;;;;;;;;14.90;99.90;;;;;;5009345;28;19933;-78
2022/09/20 12:19:32;;;;;;;;;;;14.90;99.90;;;;;;5008156;28;19934;-78
2022/09/20 12:22:15;;;;;;;;;;;14.90;99.90;;;;;;5010148;28;19926;-78
2022/09/20 12:24:41;;;;;;;;;;;14.90;99.90;;;;;;5000490;28;19980;-78
2022/09/20 12:27:25;;;;;;;;;;;15.00;99.90;;;;;;4990408;28;19925;-78
2022/09/20 12:30:11;;;;;;;;;;;15.00;99.90;;;;;;5000928;28;19926;-78
2022/09/20 12:32:42;;;;;;;;;;;15.00;99.90;;;;;;4992313;28;20003;-78
2022/09/20 12:35:26;;;;;;;;;;;15.00;99.90;;;;;;5010391;28;19925;-79
2022/09/20 12:37:52;;;;;;;;;;;14.90;99.90;;;;;;4997917;28;19925;-79
2022/09/20 12:40:17;;;;;;;;;;;14.90;99.90;;;;;;5018014;28;20273;-79
2022/09/20 12:42:43;;;;;;;;;;;14.90;99.90;;;;;;5008635;28;20410;-80
2022/09/20 12:45:16;;;;;;;;;;;14.90;99.90;;;;;;5019915;28;19925;-81
2022/09/20 12:47:49;;;;;;;;;;;15.00;99.90;;;;;;5027759;28;19932;-80
2022/09/20 12:53:03;;;;;;;;;;;15.00;99.90;;;;;;5014644;28;19941;-81
2022/09/20 12:55:53;;;;;;;;;;;15.10;99.90;;;;;;5016795;28;19948;-79
2022/09/20 12:58:19;;;;;;;;;;;15.10;99.90;;;;;;5009244;28;19956;-79
2022/09/20 13:00:54;;;;;;;;;;;15.10;99.90;;;;;;5013917;28;19925;-80
2022/09/20 13:03:27;;;;;;;;;;;15.00;99.90;;;;;;5022925;28;19933;-79
2022/09/20 13:06:05;;;;;;;;;;;15.00;99.90;;;;;;5015080;28;19925;-80
2022/09/20 13:08:38;;;;;;;;;;;14.90;99.90;;;;;;5001819;28;19978;-82
2022/09/20 13:11:08;;;;;;;;;;;15.00;99.90;;;;;;4998444;28;19936;-82
2022/09/20 13:13:36;;;;;;;;;;;15.00;99.90;;;;;;5014882;28;19932;-81
2022/09/20 13:16:04;;;;;;;;;;;15.00;99.90;;;;;;5016164;28;19997;-80
2022/09/20 13:18:30;;;;;;;;;;;15.00;99.90;;;;;;5017965;28;19925;-81
2022/09/20 13:20:56;;;;;;;;;;;15.10;99.90;;;;;;5008982;28;19932;-92
2022/09/20 13:23:27;;;;;;;;;;;15.10;99.90;;;;;;4993777;28;19936;-79
2022/09/20 13:25:56;;;;;;;;;;;15.10;99.90;;;;;;5016419;28;20051;-87
2022/09/20 13:28:33;;;;;;;;;;;15.10;99.90;;;;;;4994594;28;20016;-82
2022/09/20 13:31:23;;;;;;;;;;;15.10;99.90;;;;;;5011810;28;20399;-83
2022/09/20 13:33:49;;;;;;;;;;;15.10;99.90;;;;;;5014452;28;20267;-79
2022/09/20 13:36:18;;;;;;;;;;;15.10;99.90;;;;;;5019331;28;19925;-80
2022/09/20 13:38:47;;;;;;;;;;;15.10;99.90;;;;;;5008270;28;19933;-82
2022/09/20 13:41:15;;;;;;;;;;;15.10;99.90;;;;;;5014163;28;19925;-82
2022/09/20 13:43:48;;;;;;;;;;;15.10;99.90;;;;;;5008718;28;19933;-83
2022/09/20 13:46:21;;;;;;;;;;;15.10;99.90;;;;;;5015189;28;20016;-83
2022/09/20 13:48:50;;;;;;;;;;;15.20;99.90;;;;;;5019330;28;20269;-83
2022/09/20 13:51:17;;;;;;;;;;;15.30;99.90;;;;;;5019427;28;19940;-82
2022/09/20 13:53:43;;;;;;;;;;;15.30;99.90;;;;;;5016253;28;19925;-82
2022/09/20 13:56:15;;;;;;;;;;;15.40;99.90;;;;;;5024015;28;19947;-80
2022/09/20 13:58:41;;;;;;;;;;;15.50;99.90;;;;;;5028162;28;19925;-79
2022/09/20 14:01:18;;;;;;;;;;;15.50;99.90;;;;;;5012316;28;19925;-81
2022/09/20 14:03:44;;;;;;;;;;;15.50;99.90;;;;;;5004869;28;19976;-81
2022/09/20 14:06:14;;;;;;;;;;;15.40;99.90;;;;;;5009009;28;20011;-81
2022/09/20 14:08:42;;;;;;;;;;;15.40;99.90;;;;;;5016011;28;19931;-83
2022/09/20 14:11:26;;;;;;;;;;;15.40;99.90;;;;;;5013837;28;19926;-80
2022/09/20 14:13:53;;;;;;;;;;;15.40;99.90;;;;;;5009295;28;19965;-82
2022/09/20 14:16:20;;;;;;;;;;;15.50;99.90;;;;;;5005398;28;20023;-80
2022/09/20 14:18:46;;;;;;;;;;;15.50;99.90;;;;;;4988421;28;19926;-80
2022/09/20 14:21:13;;;;;;;;;;;15.50;99.90;;;;;;5001777;28;19926;-80
2022/09/20 14:23:49;;;;;;;;;;;15.50;99.90;;;;;;5000488;28;19963;-80
2022/09/20 14:26:14;;;;;;;;;;;15.50;99.90;;;;;;5003785;28;19925;-80
2022/09/20 14:28:40;;;;;;;;;;;15.50;99.90;;;;;;5009555;28;19931;-81
2022/09/20 14:31:10;;;;;;;;;;;15.50;99.90;;;;;;5005672;28;19995;-81
2022/09/20 14:33:39;;;;;;;;;;;15.40;99.90;;;;;;5007783;28;19925;-80
2022/09/20 14:36:10;;;;;;;;;;;15.40;99.90;;;;;;5007891;28;20004;-80
2022/09/20 14:38:35;;;;;;;;;;;15.30;99.90;;;;;;5008587;28;19925;-80
2022/09/20 14:41:01;;;;;;;;;;;15.30;99.90;;;;;;5006518;28;19933;-79
2022/09/20 14:43:32;;;;;;;;;;;15.20;99.90;;;;;;5014099;28;20415;-80
2022/09/20 14:46:00;;;;;;;;;;;15.30;99.90;;;;;;5014525;28;20024;-80
2022/09/20 14:48:33;;;;;;;;;;;15.30;99.90;;;;;;5003891;28;19930;-80
2022/09/20 14:51:08;;;;;;;;;;;15.30;99.90;;;;;;5016772;28;19925;-80
2022/09/20 14:53:36;;;;;;;;;;;15.20;99.90;;;;;;5013077;28;19929;-80
2022/09/20 14:56:05;;;;;;;;;;;15.20;99.90;;;;;;5022084;28;19933;-80
2022/09/20 14:58:31;;;;;;;;;;;15.20;99.90;;;;;;5001566;28;19925;-80